Terminal Aerodrome Forecast
Issued by NWS Portland, OR

Home | Current Version | Previous Version | Text Only | Print | Product List | Glossary On
Versions: 1 2 3 4 5 6 7 8 9 10 11 12 13 14 15 16 17 18 19 20 21 22 23 24 25 26 27 28 29 30 31 32 33 34 35 36 37 38 39 40 41 42
035
FTUS46 KPQR 181740
TAFTTD
TAF
KTTD 181740Z 1818/1918 09008KT P6SM SCT015 OVC060
      TEMPO 1818/1821 -RA BKN020
     FM182100 20010G18KT P6SM -SHRA SCT025 OVC040
     FM190800 16007KT 5SM RA OVC025=

USA.gov is the U.S. government's official web portal to all federal, state and local government web resources and services.